sensor_id;sensor_type;location;lat;lon;timestamp;temperature;humidity
2783;DHT22;1399;47.072;15.452;2023-05-07T00:01:56;17.40;78.00
2783;DHT22;1399;47.072;15.452;2023-05-07T00:04:22;17.30;77.90
2783;DHT22;1399;47.072;15.452;2023-05-07T00:06:48;17.30;78.00
2783;DHT22;1399;47.072;15.452;2023-05-07T00:09:14;17.30;77.90
2783;DHT22;1399;47.072;15.452;2023-05-07T00:11:40;17.30;78.00
2783;DHT22;1399;47.072;15.452;2023-05-07T00:14:05;17.30;78.30
2783;DHT22;1399;47.072;15.452;2023-05-07T00:16:31;17.30;78.40
2783;DHT22;1399;47.072;15.452;2023-05-07T00:18:57;17.30;78.50
2783;DHT22;1399;47.072;15.452;2023-05-07T00:21:23;17.30;78.50
2783;DHT22;1399;47.072;15.452;2023-05-07T00:23:53;17.30;78.50
2783;DHT22;1399;47.072;15.452;2023-05-07T00:26:19;17.20;78.40
2783;DHT22;1399;47.072;15.452;2023-05-07T00:28:46;17.30;78.40
2783;DHT22;1399;47.072;15.452;2023-05-07T00:31:11;17.20;78.20
2783;DHT22;1399;47.072;15.452;2023-05-07T00:33:38;17.20;78.10
2783;DHT22;1399;47.072;15.452;2023-05-07T00:36:04;17.30;78.10
2783;DHT22;1399;47.072;15.452;2023-05-07T00:38:30;17.20;77.90
2783;DHT22;1399;47.072;15.452;2023-05-07T00:40:56;17.20;77.80
2783;DHT22;1399;47.072;15.452;2023-05-07T00:43:22;17.20;77.70
2783;DHT22;1399;47.072;15.452;2023-05-07T00:45:49;17.20;77.70
2783;DHT22;1399;47.072;15.452;2023-05-07T00:48:16;17.20;77.60
2783;DHT22;1399;47.072;15.452;2023-05-07T00:50:42;17.20;77.50
2783;DHT22;1399;47.072;15.452;2023-05-07T00:53:08;17.20;77.50
2783;DHT22;1399;47.072;15.452;2023-05-07T00:55:35;17.20;77.50
2783;DHT22;1399;47.072;15.452;2023-05-07T00:58:01;17.20;77.50
2783;DHT22;1399;47.072;15.452;2023-05-07T01:00:26;17.20;77.50
2783;DHT22;1399;47.072;15.452;2023-05-07T01:02:53;17.10;77.40
2783;DHT22;1399;47.072;15.452;2023-05-07T01:05:20;17.10;77.40
2783;DHT22;1399;47.072;15.452;2023-05-07T01:07:47;17.10;77.40
2783;DHT22;1399;47.072;15.452;2023-05-07T01:10:15;17.10;77.50
2783;DHT22;1399;47.072;15.452;2023-05-07T01:12:42;17.10;77.50
2783;DHT22;1399;47.072;15.452;2023-05-07T01:15:09;17.10;77.50
2783;DHT22;1399;47.072;15.452;2023-05-07T01:17:37;17.10;77.60
2783;DHT22;1399;47.072;15.452;2023-05-07T01:20:06;17.10;77.60
2783;DHT22;1399;47.072;15.452;2023-05-07T01:22:34;17.00;77.60
2783;DHT22;1399;47.072;15.452;2023-05-07T01:25:03;17.00;77.70
2783;DHT22;1399;47.072;15.452;2023-05-07T01:27:29;17.00;77.80
2783;DHT22;1399;47.072;15.452;2023-05-07T01:29:55;17.00;77.80
2783;DHT22;1399;47.072;15.452;2023-05-07T01:32:48;16.90;77.70
2783;DHT22;1399;47.072;15.452;2023-05-07T01:35:29;16.90;77.80
2783;DHT22;1399;47.072;15.452;2023-05-07T01:37:56;16.90;77.80
2783;DHT22;1399;47.072;15.452;2023-05-07T01:40:24;16.90;77.80
2783;DHT22;1399;47.072;15.452;2023-05-07T01:42:50;16.80;77.70
2783;DHT22;1399;47.072;15.452;2023-05-07T01:45:16;16.80;77.80
2783;DHT22;1399;47.072;15.452;2023-05-07T01:47:43;16.80;77.80
2783;DHT22;1399;47.072;15.452;2023-05-07T01:50:09;16.80;77.80
2783;DHT22;1399;47.072;15.452;2023-05-07T01:52:37;16.80;77.90
2783;DHT22;1399;47.072;15.452;2023-05-07T01:55:04;16.70;77.80
2783;DHT22;1399;47.072;15.452;2023-05-07T01:57:31;16.70;77.80
2783;DHT22;1399;47.072;15.452;2023-05-07T01:59:57;16.70;77.80
2783;DHT22;1399;47.072;15.452;2023-05-07T02:02:23;16.70;77.90
2783;DHT22;1399;47.072;15.452;2023-05-07T02:04:48;16.70;77.90
2783;DHT22;1399;47.072;15.452;2023-05-07T02:07:14;16.70;77.90
2783;DHT22;1399;47.072;15.452;2023-05-07T02:09:40;16.60;77.80
2783;DHT22;1399;47.072;15.452;2023-05-07T02:12:05;16.60;77.90
2783;DHT22;1399;47.072;15.452;2023-05-07T02:14:31;16.60;78.00
2783;DHT22;1399;47.072;15.452;2023-05-07T02:16:57;16.60;77.90
2783;DHT22;1399;47.072;15.452;2023-05-07T02:19:23;16.60;77.90
2783;DHT22;1399;47.072;15.452;2023-05-07T02:21:49;16.60;78.00
2783;DHT22;1399;47.072;15.452;2023-05-07T02:24:15;16.50;78.00
2783;DHT22;1399;47.072;15.452;2023-05-07T02:26:41;16.50;78.00
2783;DHT22;1399;47.072;15.452;2023-05-07T02:29:07;16.50;78.00
2783;DHT22;1399;47.072;15.452;2023-05-07T02:31:32;16.40;77.90
2783;DHT22;1399;47.072;15.452;2023-05-07T02:34:01;16.50;78.00
2783;DHT22;1399;47.072;15.452;2023-05-07T02:36:27;16.40;77.90
2783;DHT22;1399;47.072;15.452;2023-05-07T02:38:53;16.40;77.80
2783;DHT22;1399;47.072;15.452;2023-05-07T02:41:19;16.40;77.80
2783;DHT22;1399;47.072;15.452;2023-05-07T02:43:46;16.40;77.80
2783;DHT22;1399;47.072;15.452;2023-05-07T02:46:12;16.40;77.80
2783;DHT22;1399;47.072;15.452;2023-05-07T02:48:38;16.40;77.70
2783;DHT22;1399;47.072;15.452;2023-05-07T02:51:05;16.30;77.70
2783;DHT22;1399;47.072;15.452;2023-05-07T02:53:31;16.30;77.60
2783;DHT22;1399;47.072;15.452;2023-05-07T02:55:58;16.30;77.60
2783;DHT22;1399;47.072;15.452;2023-05-07T02:58:24;16.30;77.60
2783;DHT22;1399;47.072;15.452;2023-05-07T03:00:51;16.30;77.50
2783;DHT22;1399;47.072;15.452;2023-05-07T03:03:17;16.30;77.50
2783;DHT22;1399;47.072;15.452;2023-05-07T03:05:44;16.30;77.50
2783;DHT22;1399;47.072;15.452;2023-05-07T03:08:10;16.30;77.40
2783;DHT22;1399;47.072;15.452;2023-05-07T03:10:36;16.30;77.40
2783;DHT22;1399;47.072;15.452;2023-05-07T03:13:03;16.30;77.40
2783;DHT22;1399;47.072;15.452;2023-05-07T03:15:29;16.30;77.40
2783;DHT22;1399;47.072;15.452;2023-05-07T03:17:55;16.30;77.30
2783;DHT22;1399;47.072;15.452;2023-05-07T03:20:21;16.30;77.30
2783;DHT22;1399;47.072;15.452;2023-05-07T03:22:47;16.30;77.40
2783;DHT22;1399;47.072;15.452;2023-05-07T03:25:13;16.20;77.20
2783;DHT22;1399;47.072;15.452;2023-05-07T03:27:40;16.30;77.30
2783;DHT22;1399;47.072;15.452;2023-05-07T03:30:08;16.30;77.30
2783;DHT22;1399;47.072;15.452;2023-05-07T03:32:34;16.20;77.10
2783;DHT22;1399;47.072;15.452;2023-05-07T03:35:01;16.20;77.10
2783;DHT22;1399;47.072;15.452;2023-05-07T03:37:27;16.20;77.10
2783;DHT22;1399;47.072;15.452;2023-05-07T03:39:53;16.20;77.00
2783;DHT22;1399;47.072;15.452;2023-05-07T03:42:19;16.20;77.00
2783;DHT22;1399;47.072;15.452;2023-05-07T03:44:45;16.20;77.00
2783;DHT22;1399;47.072;15.452;2023-05-07T03:47:11;16.20;77.00
2783;DHT22;1399;47.072;15.452;2023-05-07T03:49:39;16.20;77.00
2783;DHT22;1399;47.072;15.452;2023-05-07T03:52:06;16.20;76.90
2783;DHT22;1399;47.072;15.452;2023-05-07T03:54:32;16.20;76.90
2783;DHT22;1399;47.072;15.452;2023-05-07T03:56:58;16.20;76.80
2783;DHT22;1399;47.072;15.452;2023-05-07T03:59:24;16.20;76.60
2783;DHT22;1399;47.072;15.452;2023-05-07T04:01:50;16.20;76.60
2783;DHT22;1399;47.072;15.452;2023-05-07T04:04:16;16.20;76.60
2783;DHT22;1399;47.072;15.452;2023-05-07T04:06:42;16.20;76.60
2783;DHT22;1399;47.072;15.452;2023-05-07T04:09:08;16.20;76.50
2783;DHT22;1399;47.072;15.452;2023-05-07T04:11:35;16.20;76.40
2783;DHT22;1399;47.072;15.452;2023-05-07T04:14:01;16.20;76.30
2783;DHT22;1399;47.072;15.452;2023-05-07T04:16:27;16.20;76.20
2783;DHT22;1399;47.072;15.452;2023-05-07T04:18:53;16.20;76.10
2783;DHT22;1399;47.072;15.452;2023-05-07T04:21:20;16.20;76.10
2783;DHT22;1399;47.072;15.452;2023-05-07T04:23:47;16.20;76.00
2783;DHT22;1399;47.072;15.452;2023-05-07T04:26:14;16.20;76.00
2783;DHT22;1399;47.072;15.452;2023-05-07T04:28:40;16.20;75.90
2783;DHT22;1399;47.072;15.452;2023-05-07T04:31:06;16.20;75.90
2783;DHT22;1399;47.072;15.452;2023-05-07T04:33:32;16.30;75.90
2783;DHT22;1399;47.072;15.452;2023-05-07T04:36:02;16.30;75.80
2783;DHT22;1399;47.072;15.452;2023-05-07T04:38:31;16.30;75.60
2783;DHT22;1399;47.072;15.452;2023-05-07T04:41:06;16.40;75.50
2783;DHT22;1399;47.072;15.452;2023-05-07T04:43:32;16.40;75.30
2783;DHT22;1399;47.072;15.452;2023-05-07T04:45:58;16.40;75.20
2783;DHT22;1399;47.072;15.452;2023-05-07T04:48:24;16.40;75.10
2783;DHT22;1399;47.072;15.452;2023-05-07T04:50:50;16.50;75.00
2783;DHT22;1399;47.072;15.452;2023-05-07T04:53:17;16.50;74.90
2783;DHT22;1399;47.072;15.452;2023-05-07T04:55:43;16.50;74.70
2783;DHT22;1399;47.072;15.452;2023-05-07T04:58:10;16.50;74.50
2783;DHT22;1399;47.072;15.452;2023-05-07T05:00:37;16.60;74.40
2783;DHT22;1399;47.072;15.452;2023-05-07T05:03:04;16.60;74.20
2783;DHT22;1399;47.072;15.452;2023-05-07T05:05:30;16.70;74.30
2783;DHT22;1399;47.072;15.452;2023-05-07T05:07:56;16.70;74.10
2783;DHT22;1399;47.072;15.452;2023-05-07T05:10:22;16.80;74.00
2783;DHT22;1399;47.072;15.452;2023-05-07T05:12:48;16.90;73.80
2783;DHT22;1399;47.072;15.452;2023-05-07T05:15:14;17.00;73.80
2783;DHT22;1399;47.072;15.452;2023-05-07T05:17:40;17.00;73.40
2783;DHT22;1399;47.072;15.452;2023-05-07T05:20:06;17.10;73.10
2783;DHT22;1399;47.072;15.452;2023-05-07T05:22:32;17.10;72.90
2783;DHT22;1399;47.072;15.452;2023-05-07T05:24:58;17.20;72.80
2783;DHT22;1399;47.072;15.452;2023-05-07T05:27:24;17.20;72.60
2783;DHT22;1399;47.072;15.452;2023-05-07T05:29:50;17.30;72.50
2783;DHT22;1399;47.072;15.452;2023-05-07T05:32:15;17.30;72.40
2783;DHT22;1399;47.072;15.452;2023-05-07T05:34:41;17.30;72.20
2783;DHT22;1399;47.072;15.452;2023-05-07T05:37:07;17.30;72.10
2783;DHT22;1399;47.072;15.452;2023-05-07T05:39:33;17.40;72.10
2783;DHT22;1399;47.072;15.452;2023-05-07T05:41:59;17.40;72.00
2783;DHT22;1399;47.072;15.452;2023-05-07T05:44:25;17.40;71.90
2783;DHT22;1399;47.072;15.452;2023-05-07T05:46:51;17.40;71.80
2783;DHT22;1399;47.072;15.452;2023-05-07T05:49:17;17.50;71.90
2783;DHT22;1399;47.072;15.452;2023-05-07T05:51:43;17.50;71.80
2783;DHT22;1399;47.072;15.452;2023-05-07T05:54:09;17.50;71.80
2783;DHT22;1399;47.072;15.452;2023-05-07T05:56:37;17.50;71.70
2783;DHT22;1399;47.072;15.452;2023-05-07T05:59:03;17.60;71.70
2783;DHT22;1399;47.072;15.452;2023-05-07T06:01:29;17.70;71.80
2783;DHT22;1399;47.072;15.452;2023-05-07T06:03:55;18.10;71.60
2783;DHT22;1399;47.072;15.452;2023-05-07T06:06:21;18.80;70.30
2783;DHT22;1399;47.072;15.452;2023-05-07T06:08:47;19.90;67.80
2783;DHT22;1399;47.072;15.452;2023-05-07T06:11:13;21.00;64.10
2783;DHT22;1399;47.072;15.452;2023-05-07T06:13:38;21.90;60.20
2783;DHT22;1399;47.072;15.452;2023-05-07T06:16:04;22.70;58.30
2783;DHT22;1399;47.072;15.452;2023-05-07T06:18:30;23.60;56.30
2783;DHT22;1399;47.072;15.452;2023-05-07T06:20:56;24.40;54.50
2783;DHT22;1399;47.072;15.452;2023-05-07T06:23:21;25.10;53.00
2783;DHT22;1399;47.072;15.452;2023-05-07T06:25:49;25.70;51.50
2783;DHT22;1399;47.072;15.452;2023-05-07T06:28:15;26.10;50.20
2783;DHT22;1399;47.072;15.452;2023-05-07T06:30:41;26.50;49.20
2783;DHT22;1399;47.072;15.452;2023-05-07T06:33:07;26.80;48.30
2783;DHT22;1399;47.072;15.452;2023-05-07T06:35:32;27.10;47.60
2783;DHT22;1399;47.072;15.452;2023-05-07T06:37:59;27.20;47.00
2783;DHT22;1399;47.072;15.452;2023-05-07T06:40:25;27.20;46.60
2783;DHT22;1399;47.072;15.452;2023-05-07T06:42:50;27.20;46.60
2783;DHT22;1399;47.072;15.452;2023-05-07T06:45:16;27.00;46.70
2783;DHT22;1399;47.072;15.452;2023-05-07T06:47:42;26.70;47.10
2783;DHT22;1399;47.072;15.452;2023-05-07T06:50:08;26.30;47.70
2783;DHT22;1399;47.072;15.452;2023-05-07T06:52:35;26.00;48.30
2783;DHT22;1399;47.072;15.452;2023-05-07T06:55:01;25.70;49.10
2783;DHT22;1399;47.072;15.452;2023-05-07T06:57:26;25.40;49.80
2783;DHT22;1399;47.072;15.452;2023-05-07T06:59:52;25.20;50.50
2783;DHT22;1399;47.072;15.452;2023-05-07T07:02:18;25.00;51.10
2783;DHT22;1399;47.072;15.452;2023-05-07T07:04:43;24.80;51.50
2783;DHT22;1399;47.072;15.452;2023-05-07T07:07:10;24.60;52.40
2783;DHT22;1399;47.072;15.452;2023-05-07T07:09:36;24.40;52.20
2783;DHT22;1399;47.072;15.452;2023-05-07T07:12:02;24.30;52.50
2783;DHT22;1399;47.072;15.452;2023-05-07T07:14:28;24.10;52.90
2783;DHT22;1399;47.072;15.452;2023-05-07T07:16:53;23.90;53.20
2783;DHT22;1399;47.072;15.452;2023-05-07T07:19:19;23.70;53.70
2783;DHT22;1399;47.072;15.452;2023-05-07T07:21:45;23.50;54.20
2783;DHT22;1399;47.072;15.452;2023-05-07T07:24:12;23.30;54.60
2783;DHT22;1399;47.072;15.452;2023-05-07T07:26:38;23.20;55.00
2783;DHT22;1399;47.072;15.452;2023-05-07T07:29:05;23.00;55.20
2783;DHT22;1399;47.072;15.452;2023-05-07T07:31:32;22.90;55.50
2783;DHT22;1399;47.072;15.452;2023-05-07T07:33:58;22.70;55.70
2783;DHT22;1399;47.072;15.452;2023-05-07T07:36:23;22.60;56.00
2783;DHT22;1399;47.072;15.452;2023-05-07T07:38:49;22.50;56.30
2783;DHT22;1399;47.072;15.452;2023-05-07T07:41:15;22.40;56.40
2783;DHT22;1399;47.072;15.452;2023-05-07T07:43:40;22.40;56.60
2783;DHT22;1399;47.072;15.452;2023-05-07T07:46:06;22.30;56.80
2783;DHT22;1399;47.072;15.452;2023-05-07T07:48:33;22.30;56.90
2783;DHT22;1399;47.072;15.452;2023-05-07T07:50:59;22.30;57.00
2783;DHT22;1399;47.072;15.452;2023-05-07T07:53:25;22.20;57.10
2783;DHT22;1399;47.072;15.452;2023-05-07T07:55:51;22.20;57.20
2783;DHT22;1399;47.072;15.452;2023-05-07T07:58:16;22.10;57.30
2783;DHT22;1399;47.072;15.452;2023-05-07T08:00:42;22.10;57.40
2783;DHT22;1399;47.072;15.452;2023-05-07T08:03:11;22.10;57.50
2783;DHT22;1399;47.072;15.452;2023-05-07T08:05:36;22.10;57.50
2783;DHT22;1399;47.072;15.452;2023-05-07T08:08:04;22.00;57.50
2783;DHT22;1399;47.072;15.452;2023-05-07T08:10:30;22.00;57.50
2783;DHT22;1399;47.072;15.452;2023-05-07T08:12:59;22.00;57.60
2783;DHT22;1399;47.072;15.452;2023-05-07T08:15:25;22.00;57.70
2783;DHT22;1399;47.072;15.452;2023-05-07T08:17:50;22.00;57.70
2783;DHT22;1399;47.072;15.452;2023-05-07T08:20:16;22.00;57.70
2783;DHT22;1399;47.072;15.452;2023-05-07T08:22:42;21.90;57.70
2783;DHT22;1399;47.072;15.452;2023-05-07T08:25:08;21.90;57.70
2783;DHT22;1399;47.072;15.452;2023-05-07T08:27:34;21.90;57.80
2783;DHT22;1399;47.072;15.452;2023-05-07T08:29:59;21.80;57.80
2783;DHT22;1399;47.072;15.452;2023-05-07T08:32:25;21.80;57.90
2783;DHT22;1399;47.072;15.452;2023-05-07T08:34:51;21.80;58.00
2783;DHT22;1399;47.072;15.452;2023-05-07T08:37:17;21.80;58.00
2783;DHT22;1399;47.072;15.452;2023-05-07T08:39:42;21.80;58.00
2783;DHT22;1399;47.072;15.452;2023-05-07T08:42:09;21.80;58.00
2783;DHT22;1399;47.072;15.452;2023-05-07T08:44:38;21.80;58.00
2783;DHT22;1399;47.072;15.452;2023-05-07T08:47:07;21.70;58.00
2783;DHT22;1399;47.072;15.452;2023-05-07T08:49:34;21.70;58.10
2783;DHT22;1399;47.072;15.452;2023-05-07T08:52:01;21.70;58.10
2783;DHT22;1399;47.072;15.452;2023-05-07T08:54:28;21.70;58.10
2783;DHT22;1399;47.072;15.452;2023-05-07T08:56:54;21.70;58.10
2783;DHT22;1399;47.072;15.452;2023-05-07T08:59:20;21.70;58.10
2783;DHT22;1399;47.072;15.452;2023-05-07T09:01:46;21.70;58.10
2783;DHT22;1399;47.072;15.452;2023-05-07T09:04:12;21.70;58.00
2783;DHT22;1399;47.072;15.452;2023-05-07T09:06:38;21.70;58.00
2783;DHT22;1399;47.072;15.452;2023-05-07T09:09:07;21.70;57.90
2783;DHT22;1399;47.072;15.452;2023-05-07T09:11:33;21.70;57.90
2783;DHT22;1399;47.072;15.452;2023-05-07T09:13:59;21.70;57.90
2783;DHT22;1399;47.072;15.452;2023-05-07T09:16:29;21.70;57.80
2783;DHT22;1399;47.072;15.452;2023-05-07T09:18:58;21.70;57.70
2783;DHT22;1399;47.072;15.452;2023-05-07T09:21:24;21.70;57.80
2783;DHT22;1399;47.072;15.452;2023-05-07T09:23:54;21.70;57.80
2783;DHT22;1399;47.072;15.452;2023-05-07T09:26:24;21.60;57.80
2783;DHT22;1399;47.072;15.452;2023-05-07T09:28:51;21.60;57.80
2783;DHT22;1399;47.072;15.452;2023-05-07T09:31:17;21.60;57.90
2783;DHT22;1399;47.072;15.452;2023-05-07T09:33:43;21.60;57.90
2783;DHT22;1399;47.072;15.452;2023-05-07T09:36:09;21.50;57.90
2783;DHT22;1399;47.072;15.452;2023-05-07T09:38:36;21.50;57.90
2783;DHT22;1399;47.072;15.452;2023-05-07T09:43:32;21.50;57.90
2783;DHT22;1399;47.072;15.452;2023-05-07T09:46:11;21.50;57.80
2783;DHT22;1399;47.072;15.452;2023-05-07T09:48:39;21.60;57.80
2783;DHT22;1399;47.072;15.452;2023-05-07T09:51:28;21.60;57.70
2783;DHT22;1399;47.072;15.452;2023-05-07T09:53:56;21.60;57.70
2783;DHT22;1399;47.072;15.452;2023-05-07T09:56:22;21.60;57.60
2783;DHT22;1399;47.072;15.452;2023-05-07T09:58:53;21.60;57.60
2783;DHT22;1399;47.072;15.452;2023-05-07T10:01:19;21.60;57.50
2783;DHT22;1399;47.072;15.452;2023-05-07T10:03:48;21.60;57.50
2783;DHT22;1399;47.072;15.452;2023-05-07T10:06:16;21.60;57.50
2783;DHT22;1399;47.072;15.452;2023-05-07T10:08:43;21.60;57.50
2783;DHT22;1399;47.072;15.452;2023-05-07T10:11:09;21.60;57.40
2783;DHT22;1399;47.072;15.452;2023-05-07T10:13:35;21.60;57.50
2783;DHT22;1399;47.072;15.452;2023-05-07T10:16:05;21.60;57.50
2783;DHT22;1399;47.072;15.452;2023-05-07T10:18:32;21.60;57.50
2783;DHT22;1399;47.072;15.452;2023-05-07T10:21:23;21.60;57.50
2783;DHT22;1399;47.072;15.452;2023-05-07T10:24:16;21.60;57.40
2783;DHT22;1399;47.072;15.452;2023-05-07T10:26:48;21.60;57.30
2783;DHT22;1399;47.072;15.452;2023-05-07T10:29:39;21.60;57.20
2783;DHT22;1399;47.072;15.452;2023-05-07T10:32:32;21.60;57.20
2783;DHT22;1399;47.072;15.452;2023-05-07T10:35:01;21.60;57.20
2783;DHT22;1399;47.072;15.452;2023-05-07T10:37:28;21.60;57.10
2783;DHT22;1399;47.072;15.452;2023-05-07T10:39:54;21.60;57.20
2783;DHT22;1399;47.072;15.452;2023-05-07T10:42:20;21.60;57.10
2783;DHT22;1399;47.072;15.452;2023-05-07T10:44:46;21.60;57.10
2783;DHT22;1399;47.072;15.452;2023-05-07T10:47:16;21.60;57.10
2783;DHT22;1399;47.072;15.452;2023-05-07T10:52:18;21.50;57.10
2783;DHT22;1399;47.072;15.452;2023-05-07T10:54:45;21.50;57.00
2783;DHT22;1399;47.072;15.452;2023-05-07T10:57:36;21.60;56.90
2783;DHT22;1399;47.072;15.452;2023-05-07T11:00:03;21.60;56.80
2783;DHT22;1399;47.072;15.452;2023-05-07T11:05:27;21.70;56.80
2783;DHT22;1399;47.072;15.452;2023-05-07T11:08:00;21.70;56.60
2783;DHT22;1399;47.072;15.452;2023-05-07T11:10:53;21.60;56.50
2783;DHT22;1399;47.072;15.452;2023-05-07T11:13:43;21.70;56.50
2783;DHT22;1399;47.072;15.452;2023-05-07T11:16:23;21.70;56.30
2783;DHT22;1399;47.072;15.452;2023-05-07T11:18:51;21.70;56.20
2783;DHT22;1399;47.072;15.452;2023-05-07T11:24:03;21.80;56.00
2783;DHT22;1399;47.072;15.452;2023-05-07T11:26:40;21.80;55.90
2783;DHT22;1399;47.072;15.452;2023-05-07T11:29:11;21.80;55.90
2783;DHT22;1399;47.072;15.452;2023-05-07T11:31:37;21.80;55.80
2783;DHT22;1399;47.072;15.452;2023-05-07T11:34:03;21.80;55.90
2783;DHT22;1399;47.072;15.452;2023-05-07T11:36:31;21.90;55.90
2783;DHT22;1399;47.072;15.452;2023-05-07T11:38:57;21.80;55.90
2783;DHT22;1399;47.072;15.452;2023-05-07T11:41:32;21.90;55.70
2783;DHT22;1399;47.072;15.452;2023-05-07T11:43:59;21.90;55.80
2783;DHT22;1399;47.072;15.452;2023-05-07T11:46:26;21.90;55.50
2783;DHT22;1399;47.072;15.452;2023-05-07T11:48:52;22.00;55.40
2783;DHT22;1399;47.072;15.452;2023-05-07T11:51:22;22.00;55.30
2783;DHT22;1399;47.072;15.452;2023-05-07T11:53:49;22.00;55.20
2783;DHT22;1399;47.072;15.452;2023-05-07T11:56:17;22.00;55.00
2783;DHT22;1399;47.072;15.452;2023-05-07T11:58:44;22.10;55.00
2783;DHT22;1399;47.072;15.452;2023-05-07T12:01:12;22.10;55.00
2783;DHT22;1399;47.072;15.452;2023-05-07T12:03:41;22.10;54.90
2783;DHT22;1399;47.072;15.452;2023-05-07T12:06:15;22.20;54.80
2783;DHT22;1399;47.072;15.452;2023-05-07T12:08:42;22.20;54.70
2783;DHT22;1399;47.072;15.452;2023-05-07T12:11:10;22.20;54.80
2783;DHT22;1399;47.072;15.452;2023-05-07T12:13:37;22.20;55.10
2783;DHT22;1399;47.072;15.452;2023-05-07T12:16:04;22.20;55.00
2783;DHT22;1399;47.072;15.452;2023-05-07T12:18:31;22.20;54.80
2783;DHT22;1399;47.072;15.452;2023-05-07T12:20:57;22.20;55.10
2783;DHT22;1399;47.072;15.452;2023-05-07T12:23:24;22.20;54.70
2783;DHT22;1399;47.072;15.452;2023-05-07T12:25:50;22.20;54.60
2783;DHT22;1399;47.072;15.452;2023-05-07T12:28:17;22.30;54.50
2783;DHT22;1399;47.072;15.452;2023-05-07T12:30:45;22.30;54.50
2783;DHT22;1399;47.072;15.452;2023-05-07T12:33:11;22.30;54.20
2783;DHT22;1399;47.072;15.452;2023-05-07T12:35:39;22.30;54.10
2783;DHT22;1399;47.072;15.452;2023-05-07T12:38:12;22.30;54.10
2783;DHT22;1399;47.072;15.452;2023-05-07T12:40:40;22.30;54.20
2783;DHT22;1399;47.072;15.452;2023-05-07T12:43:07;22.30;54.00
2783;DHT22;1399;47.072;15.452;2023-05-07T12:45:37;22.30;53.90
2783;DHT22;1399;47.072;15.452;2023-05-07T12:48:04;22.30;53.90
2783;DHT22;1399;47.072;15.452;2023-05-07T12:50:33;22.20;53.90
2783;DHT22;1399;47.072;15.452;2023-05-07T12:52:59;22.20;54.10
2783;DHT22;1399;47.072;15.452;2023-05-07T12:55:25;22.10;54.10
2783;DHT22;1399;47.072;15.452;2023-05-07T12:57:53;22.10;54.20
2783;DHT22;1399;47.072;15.452;2023-05-07T13:00:35;22.00;54.20
2783;DHT22;1399;47.072;15.452;2023-05-07T13:03:00;21.90;54.30
2783;DHT22;1399;47.072;15.452;2023-05-07T13:05:26;21.90;54.50
2783;DHT22;1399;47.072;15.452;2023-05-07T13:07:55;21.80;54.70
2783;DHT22;1399;47.072;15.452;2023-05-07T13:10:22;21.70;54.80
2783;DHT22;1399;47.072;15.452;2023-05-07T13:12:49;21.70;55.10
2783;DHT22;1399;47.072;15.452;2023-05-07T13:15:15;21.60;55.30
2783;DHT22;1399;47.072;15.452;2023-05-07T13:17:41;21.50;55.40
2783;DHT22;1399;47.072;15.452;2023-05-07T13:20:08;21.50;55.70
2783;DHT22;1399;47.072;15.452;2023-05-07T13:22:34;21.40;55.90
2783;DHT22;1399;47.072;15.452;2023-05-07T13:25:00;21.40;56.20
2783;DHT22;1399;47.072;15.452;2023-05-07T13:27:25;21.30;56.40
2783;DHT22;1399;47.072;15.452;2023-05-07T13:29:51;21.30;56.60
2783;DHT22;1399;47.072;15.452;2023-05-07T13:32:17;21.20;56.80
2783;DHT22;1399;47.072;15.452;2023-05-07T13:34:43;21.20;57.10
2783;DHT22;1399;47.072;15.452;2023-05-07T13:37:08;21.10;57.50
2783;DHT22;1399;47.072;15.452;2023-05-07T13:39:34;21.10;58.40
2783;DHT22;1399;47.072;15.452;2023-05-07T13:42:00;21.10;59.40
2783;DHT22;1399;47.072;15.452;2023-05-07T13:44:26;21.00;60.00
2783;DHT22;1399;47.072;15.452;2023-05-07T13:46:52;21.00;60.90
2783;DHT22;1399;47.072;15.452;2023-05-07T13:49:18;20.90;61.40
2783;DHT22;1399;47.072;15.452;2023-05-07T13:51:43;20.80;61.70
2783;DHT22;1399;47.072;15.452;2023-05-07T13:54:09;20.80;62.00
2783;DHT22;1399;47.072;15.452;2023-05-07T13:56:35;20.80;62.40
2783;DHT22;1399;47.072;15.452;2023-05-07T13:59:00;20.70;62.80
2783;DHT22;1399;47.072;15.452;2023-05-07T14:01:27;20.60;63.10
2783;DHT22;1399;47.072;15.452;2023-05-07T14:03:52;20.60;63.50
2783;DHT22;1399;47.072;15.452;2023-05-07T14:06:18;20.50;63.90
2783;DHT22;1399;47.072;15.452;2023-05-07T14:08:44;20.50;64.20
2783;DHT22;1399;47.072;15.452;2023-05-07T14:11:09;20.50;64.60
2783;DHT22;1399;47.072;15.452;2023-05-07T14:13:35;20.40;65.00
2783;DHT22;1399;47.072;15.452;2023-05-07T14:16:01;20.40;65.50
2783;DHT22;1399;47.072;15.452;2023-05-07T14:18:27;20.40;65.90
2783;DHT22;1399;47.072;15.452;2023-05-07T14:20:54;20.40;66.30
2783;DHT22;1399;47.072;15.452;2023-05-07T14:23:20;20.30;66.60
2783;DHT22;1399;47.072;15.452;2023-05-07T14:25:51;20.30;66.90
2783;DHT22;1399;47.072;15.452;2023-05-07T14:28:16;20.30;67.20
2783;DHT22;1399;47.072;15.452;2023-05-07T14:30:42;20.30;67.40
2783;DHT22;1399;47.072;15.452;2023-05-07T14:33:08;20.40;67.60
2783;DHT22;1399;47.072;15.452;2023-05-07T14:35:33;20.40;67.60
2783;DHT22;1399;47.072;15.452;2023-05-07T14:37:59;20.40;67.60
2783;DHT22;1399;47.072;15.452;2023-05-07T14:40:25;20.40;67.60
2783;DHT22;1399;47.072;15.452;2023-05-07T14:42:51;20.40;67.50
2783;DHT22;1399;47.072;15.452;2023-05-07T14:45:16;20.50;67.50
2783;DHT22;1399;47.072;15.452;2023-05-07T14:47:42;20.50;67.40
2783;DHT22;1399;47.072;15.452;2023-05-07T14:50:08;20.50;67.50
2783;DHT22;1399;47.072;15.452;2023-05-07T14:52:34;20.50;67.60
2783;DHT22;1399;47.072;15.452;2023-05-07T14:55:00;20.50;67.60
2783;DHT22;1399;47.072;15.452;2023-05-07T14:57:25;20.50;67.70
2783;DHT22;1399;47.072;15.452;2023-05-07T14:59:51;20.50;67.80
2783;DHT22;1399;47.072;15.452;2023-05-07T15:02:17;20.50;67.80
2783;DHT22;1399;47.072;15.452;2023-05-07T15:04:43;20.50;67.90
2783;DHT22;1399;47.072;15.452;2023-05-07T15:07:12;20.40;68.00
2783;DHT22;1399;47.072;15.452;2023-05-07T15:09:41;20.40;68.10
2783;DHT22;1399;47.072;15.452;2023-05-07T15:12:07;20.40;68.20
2783;DHT22;1399;47.072;15.452;2023-05-07T15:14:33;20.40;68.30
2783;DHT22;1399;47.072;15.452;2023-05-07T15:16:59;20.30;68.30
2783;DHT22;1399;47.072;15.452;2023-05-07T15:19:24;20.30;68.40
2783;DHT22;1399;47.072;15.452;2023-05-07T15:21:55;20.30;68.50
2783;DHT22;1399;47.072;15.452;2023-05-07T15:24:22;20.20;68.40
2783;DHT22;1399;47.072;15.452;2023-05-07T15:26:48;20.20;68.50
2783;DHT22;1399;47.072;15.452;2023-05-07T15:29:14;20.20;68.50
2783;DHT22;1399;47.072;15.452;2023-05-07T15:31:39;20.20;68.50
2783;DHT22;1399;47.072;15.452;2023-05-07T15:34:05;20.20;68.50
2783;DHT22;1399;47.072;15.452;2023-05-07T15:36:31;20.20;68.40
2783;DHT22;1399;47.072;15.452;2023-05-07T15:38:58;20.20;68.30
2783;DHT22;1399;47.072;15.452;2023-05-07T15:41:24;20.20;68.10
2783;DHT22;1399;47.072;15.452;2023-05-07T15:43:51;20.30;68.20
2783;DHT22;1399;47.072;15.452;2023-05-07T15:46:19;20.30;68.00
2783;DHT22;1399;47.072;15.452;2023-05-07T15:48:45;20.30;67.90
2783;DHT22;1399;47.072;15.452;2023-05-07T15:51:11;20.30;67.80
2783;DHT22;1399;47.072;15.452;2023-05-07T15:53:38;20.30;67.80
2783;DHT22;1399;47.072;15.452;2023-05-07T15:56:04;20.30;67.70